Miedwie — C6XP5 — position and weather

sailwx.info

Track history (hours):
 
Tides and Currents Weather Stations Pressure Air Temp Water Temp Dewpoint Dewpoint Depression Visibility Wind Speed Wind Dir Waves Ship Positions

Miedwie

Last reported at 2017-Jun-18 11:09 UTC. Time now 2017-Jun-26 03:51 UTC.
Position S 25°18' W 047°14'.

Length 190 m; draft 10 m.

Type: Cargo ship. MMSI: 311018300.

Date/timePositionNaut miles runAvg speedWind from/ knotsBaromVisibWave heightAir tempDewpointWater temp
2017-Jun-18 11:09S 25°18' W 047°14'1111.0
2017-Jun-18 10:10S 25°13' W 047°03'210.9
2017-Jun-18 10:00S 25°13' W 047°01'511.0
2017-Jun-18 09:30S 25°10' W 046°56'611.1
2017-Jun-18 09:00S 25°08' W 046°50'611.1
2017-Jun-18 08:29S 25°06' W 046°44'1011.1
2017-Jun-18 07:35S 25°02' W 046°34'111.2
2017-Jun-18 07:30S 25°02' W 046°33'611.2
2017-Jun-18 07:00S 24°59' W 046°28'611.2
2017-Jun-18 06:30S 24°57' W 046°22'611.3
2017-Jun-18 06:00S 24°55' W 046°16'611.3
2017-Jun-18 05:30S 24°53' W 046°11'611.4
2017-Jun-18 05:00S 24°50' W 046°05'611.6
2017-Jun-18 04:30S 24°48' W 045°59'611.7
2017-Jun-18 04:00S 24°46' W 045°53'611.8
2017-Jun-18 03:30S 24°43' W 045°47'1111.7
2017-Jun-18 02:33S 24°39' W 045°36'111.6
2017-Jun-18 02:30S 24°39' W 045°35'611.7
2017-Jun-18 02:00S 24°36' W 045°29'911.8
2017-Jun-18 01:17S 24°33' W 045°21'311.9
2017-Jun-18 01:00S 24°32' W 045°17'711.9
2017-Jun-18 00:27S 24°29' W 045°11'512.0
2017-Jun-18 00:00S 24°27' W 045°05'611.9
2017-Jun-17 23:30S 24°25' W 044°59'  
Track history (hours):
 
Tides and Currents Weather Stations Pressure Air Temp Water Temp Dewpoint Dewpoint Depression Visibility Wind Speed Wind Dir Waves Ship Positions

Miedwie

Last reported at 2017-Jun-18 11:09 UTC. Time now 2017-Jun-26 03:51 UTC.
Position S 25°18' W 047°14'.

Length 190 m; draft 10 m.

Type: Cargo ship. MMSI: 311018300.

Date/timePositionNaut miles runAvg speedWind from/ knotsBaromVisibWave heightAir tempDewpointWater temp
2017-Jun-18 11:09S 25°18' W 047°14'1111.0
2017-Jun-18 10:10S 25°13' W 047°03'210.9
2017-Jun-18 10:00S 25°13' W 047°01'511.0
2017-Jun-18 09:30S 25°10' W 046°56'611.1
2017-Jun-18 09:00S 25°08' W 046°50'611.1
2017-Jun-18 08:29S 25°06' W 046°44'1011.1
2017-Jun-18 07:35S 25°02' W 046°34'111.2
2017-Jun-18 07:30S 25°02' W 046°33'611.2
2017-Jun-18 07:00S 24°59' W 046°28'611.2
2017-Jun-18 06:30S 24°57' W 046°22'611.3
2017-Jun-18 06:00S 24°55' W 046°16'611.3
2017-Jun-18 05:30S 24°53' W 046°11'611.4
2017-Jun-18 05:00S 24°50' W 046°05'611.6
2017-Jun-18 04:30S 24°48' W 045°59'611.7
2017-Jun-18 04:00S 24°46' W 045°53'611.8
2017-Jun-18 03:30S 24°43' W 045°47'1111.7
2017-Jun-18 02:33S 24°39' W 045°36'111.6
2017-Jun-18 02:30S 24°39' W 045°35'611.7
2017-Jun-18 02:00S 24°36' W 045°29'911.8
2017-Jun-18 01:17S 24°33' W 045°21'311.9
2017-Jun-18 01:00S 24°32' W 045°17'711.9
2017-Jun-18 00:27S 24°29' W 045°11'512.0
2017-Jun-18 00:00S 24°27' W 045°05'611.9
2017-Jun-17 23:30S 24°25' W 044°59'  

Dump ship's entire track history